Magne Viking — OURK2 — position and weather

sailwx.info

Track history (hours):
 
Tides and Currents Weather Stations Pressure Air Temp Water Temp Dewpoint Dewpoint Depression Visibility Wind Speed Wind Dir Waves Ship Positions

Magne Viking

Last reported at 2017-Apr-21 09:09 UTC. Time now 2017-Oct-18 00:20 UTC.
Position N 56°42' W 002°26'.
Warning: this ship's position is months out of date.

Length 85 m; draft 6.6 m.

Type: Tug. MMSI: 219375000.

Date/timePositionNaut miles runAvg speedWind from/ knotsBaromVisibWave heightAir tempDewpointWater temp
2017-Apr-21 09:09N 56°42' W 002°26'1 7.2
2017-Apr-21 08:59N 56°42' W 002°24'0 0.8
2017-Apr-21 08:30N 56°42' W 002°23'1 2.5
2017-Apr-21 08:00N 56°42' W 002°21'4 7.7
2017-Apr-21 07:30N 56°44' W 002°15'5 7.9
2017-Apr-21 06:55N 56°47' W 002°08'11 9.3
2017-Apr-21 05:43N 56°57' W 001°60'2 8.9
2017-Apr-21 05:30N 56°59' W 001°59'5 9.1
2017-Apr-21 05:01N 57°03' W 001°55'4 8.7
2017-Apr-21 04:30N 57°07' W 001°52'4 8.8
2017-Apr-21 04:00N 57°11' W 001°49'4 8.7
2017-Apr-21 03:30N 57°15' W 001°46'510.0
2017-Apr-21 03:00N 57°20' W 001°43'510.2
2017-Apr-21 02:30N 57°25' W 001°40'5 9.9
2017-Apr-21 02:00N 57°30' W 001°36'510.0
2017-Apr-21 01:31N 57°35' W 001°37'510.1
2017-Apr-21 01:01N 57°40' W 001°38'510.1
2017-Apr-21 00:30N 57°45' W 001°38'510.2
2017-Apr-21 00:00N 57°50' W 001°39'510.4
2017-Apr-20 23:30N 57°55' W 001°40'4 0.1
2017-Apr-19 02:52N 57°54' W 001°33'410.2
2017-Apr-19 02:30N 57°50' W 001°32'510.4
2017-Apr-19 02:00N 57°45' W 001°32'510.5
2017-Apr-19 01:30N 57°40' W 001°30'510.5
2017-Apr-19 01:00N 57°35' W 001°31'510.7
2017-Apr-19 00:30N 57°29' W 001°30'610.8
2017-Apr-18 23:58N 57°24' W 001°32'811.1
2017-Apr-18 23:13N 57°16' W 001°38'211.0
2017-Apr-18 23:01N 57°14' W 001°39'1010.9
2017-Apr-18 22:05N 57°04' W 001°44'110.7
2017-Apr-18 22:01N 57°03' W 001°45'510.8
2017-Apr-18 21:30N 56°58' W 001°48'  
2017-Apr-12 15:48N 56°42' W 002°26'2 6.6
2017-Apr-12 15:30N 56°42' W 002°23'4 7.6
2017-Apr-12 15:01N 56°43' W 002°16'2 0.6
2017-Apr-12 11:50N 56°45' W 002°14'0 0.1
2017-Apr-12 11:30N 56°45' W 002°14'0 0.1
2017-Apr-12 10:59N 56°45' W 002°14'0 0.0
2017-Apr-12 10:30N 56°45' W 002°14'0 0.0
2017-Apr-12 10:00N 56°45' W 002°14'0 0.0
2017-Apr-12 09:30N 56°45' W 002°14'0 0.0
2017-Apr-12 09:00N 56°45' W 002°14'0 0.0
2017-Apr-12 08:31N 56°45' W 002°14'0 0.0
2017-Apr-12 08:01N 56°45' W 002°14'1 1.0
2017-Apr-12 07:08N 56°44' W 002°15'1 1.2
2017-Apr-12 05:57N 56°43' W 002°17'2 1.7
2017-Apr-12 04:39N 56°43' W 002°21'  
Track history (hours):
 
Tides and Currents Weather Stations Pressure Air Temp Water Temp Dewpoint Dewpoint Depression Visibility Wind Speed Wind Dir Waves Ship Positions

Magne Viking

Last reported at 2017-Apr-21 09:09 UTC. Time now 2017-Oct-18 00:20 UTC.
Position N 56°42' W 002°26'.
Warning: this ship's position is months out of date.

Length 85 m; draft 6.6 m.

Type: Tug. MMSI: 219375000.

Date/timePositionNaut miles runAvg speedWind from/ knotsBaromVisibWave heightAir tempDewpointWater temp
2017-Apr-21 09:09N 56°42' W 002°26'1 7.2
2017-Apr-21 08:59N 56°42' W 002°24'0 0.8
2017-Apr-21 08:30N 56°42' W 002°23'1 2.5
2017-Apr-21 08:00N 56°42' W 002°21'4 7.7
2017-Apr-21 07:30N 56°44' W 002°15'5 7.9
2017-Apr-21 06:55N 56°47' W 002°08'11 9.3
2017-Apr-21 05:43N 56°57' W 001°60'2 8.9
2017-Apr-21 05:30N 56°59' W 001°59'5 9.1
2017-Apr-21 05:01N 57°03' W 001°55'4 8.7
2017-Apr-21 04:30N 57°07' W 001°52'4 8.8
2017-Apr-21 04:00N 57°11' W 001°49'4 8.7
2017-Apr-21 03:30N 57°15' W 001°46'510.0
2017-Apr-21 03:00N 57°20' W 001°43'510.2
2017-Apr-21 02:30N 57°25' W 001°40'5 9.9
2017-Apr-21 02:00N 57°30' W 001°36'510.0
2017-Apr-21 01:31N 57°35' W 001°37'510.1
2017-Apr-21 01:01N 57°40' W 001°38'510.1
2017-Apr-21 00:30N 57°45' W 001°38'510.2
2017-Apr-21 00:00N 57°50' W 001°39'510.4
2017-Apr-20 23:30N 57°55' W 001°40'4 0.1
2017-Apr-19 02:52N 57°54' W 001°33'410.2
2017-Apr-19 02:30N 57°50' W 001°32'510.4
2017-Apr-19 02:00N 57°45' W 001°32'510.5
2017-Apr-19 01:30N 57°40' W 001°30'510.5
2017-Apr-19 01:00N 57°35' W 001°31'510.7
2017-Apr-19 00:30N 57°29' W 001°30'610.8
2017-Apr-18 23:58N 57°24' W 001°32'811.1
2017-Apr-18 23:13N 57°16' W 001°38'211.0
2017-Apr-18 23:01N 57°14' W 001°39'1010.9
2017-Apr-18 22:05N 57°04' W 001°44'110.7
2017-Apr-18 22:01N 57°03' W 001°45'510.8
2017-Apr-18 21:30N 56°58' W 001°48'  
2017-Apr-12 15:48N 56°42' W 002°26'2 6.6
2017-Apr-12 15:30N 56°42' W 002°23'4 7.6
2017-Apr-12 15:01N 56°43' W 002°16'2 0.6
2017-Apr-12 11:50N 56°45' W 002°14'0 0.1
2017-Apr-12 11:30N 56°45' W 002°14'0 0.1
2017-Apr-12 10:59N 56°45' W 002°14'0 0.0
2017-Apr-12 10:30N 56°45' W 002°14'0 0.0
2017-Apr-12 10:00N 56°45' W 002°14'0 0.0
2017-Apr-12 09:30N 56°45' W 002°14'0 0.0
2017-Apr-12 09:00N 56°45' W 002°14'0 0.0
2017-Apr-12 08:31N 56°45' W 002°14'0 0.0
2017-Apr-12 08:01N 56°45' W 002°14'1 1.0
2017-Apr-12 07:08N 56°44' W 002°15'1 1.2
2017-Apr-12 05:57N 56°43' W 002°17'2 1.7
2017-Apr-12 04:39N 56°43' W 002°21'  

Dump ship's entire track history